sensor_id;sensor_type;location;lat;lon;timestamp;P1;durP1;ratioP1;P2;durP2;ratioP2
31818;SDS011;18384;48.860;9.188;2022-09-14T00:01:23;9.73;;;1.40;;
31818;SDS011;18384;48.860;9.188;2022-09-14T00:03:54;4.20;;;1.65;;
31818;SDS011;18384;48.860;9.188;2022-09-14T00:06:26;2.33;;;1.40;;
31818;SDS011;18384;48.860;9.188;2022-09-14T00:08:55;4.05;;;1.65;;
31818;SDS011;18384;48.860;9.188;2022-09-14T00:11:23;8.70;;;1.98;;
31818;SDS011;18384;48.860;9.188;2022-09-14T00:13:52;5.05;;;1.52;;
31818;SDS011;18384;48.860;9.188;2022-09-14T00:16:26;7.68;;;1.70;;
31818;SDS011;18384;48.860;9.188;2022-09-14T00:21:33;11.25;;;2.22;;
31818;SDS011;18384;48.860;9.188;2022-09-14T00:24:02;6.43;;;2.00;;
31818;SDS011;18384;48.860;9.188;2022-09-14T00:26:31;5.10;;;2.20;;
31818;SDS011;18384;48.860;9.188;2022-09-14T00:28:58;11.35;;;2.25;;
31818;SDS011;18384;48.860;9.188;2022-09-14T00:31:29;8.45;;;2.05;;
31818;SDS011;18384;48.860;9.188;2022-09-14T00:33:59;5.75;;;2.00;;
31818;SDS011;18384;48.860;9.188;2022-09-14T00:36:27;5.60;;;2.00;;
31818;SDS011;18384;48.860;9.188;2022-09-14T00:38:55;6.00;;;2.10;;
31818;SDS011;18384;48.860;9.188;2022-09-14T00:41:23;4.15;;;2.10;;
31818;SDS011;18384;48.860;9.188;2022-09-14T00:44:04;7.00;;;2.30;;
31818;SDS011;18384;48.860;9.188;2022-09-14T00:48:03;6.93;;;2.30;;
31818;SDS011;18384;48.860;9.188;2022-09-14T00:52:55;5.78;;;2.50;;
31818;SDS011;18384;48.860;9.188;2022-09-14T00:55:21;7.32;;;2.50;;
31818;SDS011;18384;48.860;9.188;2022-09-14T00:57:48;9.63;;;2.30;;
31818;SDS011;18384;48.860;9.188;2022-09-14T01:00:23;7.15;;;2.40;;
31818;SDS011;18384;48.860;9.188;2022-09-14T01:05:24;8.18;;;2.55;;
31818;SDS011;18384;48.860;9.188;2022-09-14T01:23:17;10.07;;;2.47;;
31818;SDS011;18384;48.860;9.188;2022-09-14T01:30:02;7.80;;;2.45;;
31818;SDS011;18384;48.860;9.188;2022-09-14T01:32:44;7.03;;;2.50;;
31818;SDS011;18384;48.860;9.188;2022-09-14T01:35:32;4.85;;;2.20;;
31818;SDS011;18384;48.860;9.188;2022-09-14T01:38:25;11.40;;;2.70;;
31818;SDS011;18384;48.860;9.188;2022-09-14T01:41:06;12.00;;;3.83;;
31818;SDS011;18384;48.860;9.188;2022-09-14T01:43:42;21.17;;;4.53;;
31818;SDS011;18384;48.860;9.188;2022-09-14T01:46:25;11.45;;;3.37;;
31818;SDS011;18384;48.860;9.188;2022-09-14T01:49:00;14.53;;;3.80;;
31818;SDS011;18384;48.860;9.188;2022-09-14T01:52:00;8.80;;;3.15;;
31818;SDS011;18384;48.860;9.188;2022-09-14T01:54:35;11.43;;;2.72;;
31818;SDS011;18384;48.860;9.188;2022-09-14T01:57:30;11.30;;;2.87;;
31818;SDS011;18384;48.860;9.188;2022-09-14T02:00:19;7.47;;;2.22;;
31818;SDS011;18384;48.860;9.188;2022-09-14T02:02:57;7.47;;;2.70;;
31818;SDS011;18384;48.860;9.188;2022-09-14T02:05:48;6.70;;;2.30;;
31818;SDS011;18384;48.860;9.188;2022-09-14T02:09:17;7.95;;;2.65;;
31818;SDS011;18384;48.860;9.188;2022-09-14T02:11:46;11.02;;;2.80;;
31818;SDS011;18384;48.860;9.188;2022-09-14T02:14:13;11.95;;;2.87;;
31818;SDS011;18384;48.860;9.188;2022-09-14T02:16:39;8.93;;;3.03;;
31818;SDS011;18384;48.860;9.188;2022-09-14T02:19:07;10.63;;;3.08;;
31818;SDS011;18384;48.860;9.188;2022-09-14T02:21:34;11.68;;;2.60;;
31818;SDS011;18384;48.860;9.188;2022-09-14T02:24:01;6.80;;;2.45;;
31818;SDS011;18384;48.860;9.188;2022-09-14T02:26:28;14.87;;;3.15;;
31818;SDS011;18384;48.860;9.188;2022-09-14T02:28:55;11.43;;;3.08;;
31818;SDS011;18384;48.860;9.188;2022-09-14T02:41:03;7.87;;;2.78;;
31818;SDS011;18384;48.860;9.188;2022-09-14T02:54:53;10.95;;;2.40;;
31818;SDS011;18384;48.860;9.188;2022-09-14T02:58:16;9.27;;;2.80;;
31818;SDS011;18384;48.860;9.188;2022-09-14T03:00:46;5.70;;;2.55;;
31818;SDS011;18384;48.860;9.188;2022-09-14T03:03:15;11.73;;;2.70;;
31818;SDS011;18384;48.860;9.188;2022-09-14T03:05:43;10.43;;;2.47;;
31818;SDS011;18384;48.860;9.188;2022-09-14T03:08:10;8.60;;;2.87;;
31818;SDS011;18384;48.860;9.188;2022-09-14T03:10:36;9.70;;;3.05;;
31818;SDS011;18384;48.860;9.188;2022-09-14T03:13:05;13.50;;;2.80;;
31818;SDS011;18384;48.860;9.188;2022-09-14T03:15:31;9.07;;;2.80;;
31818;SDS011;18384;48.860;9.188;2022-09-14T03:20:24;15.68;;;3.42;;
31818;SDS011;18384;48.860;9.188;2022-09-14T03:22:53;7.15;;;2.70;;
31818;SDS011;18384;48.860;9.188;2022-09-14T03:25:19;10.13;;;2.83;;
31818;SDS011;18384;48.860;9.188;2022-09-14T03:27:49;15.00;;;3.28;;
31818;SDS011;18384;48.860;9.188;2022-09-14T03:30:17;9.13;;;3.42;;
31818;SDS011;18384;48.860;9.188;2022-09-14T03:32:44;6.28;;;2.85;;
31818;SDS011;18384;48.860;9.188;2022-09-14T03:35:11;8.60;;;3.00;;
31818;SDS011;18384;48.860;9.188;2022-09-14T03:37:38;8.25;;;2.90;;
31818;SDS011;18384;48.860;9.188;2022-09-14T03:40:07;7.47;;;2.53;;
31818;SDS011;18384;48.860;9.188;2022-09-14T03:42:36;5.72;;;2.42;;
31818;SDS011;18384;48.860;9.188;2022-09-14T03:45:11;9.75;;;3.12;;
31818;SDS011;18384;48.860;9.188;2022-09-14T03:47:39;10.18;;;3.35;;
31818;SDS011;18384;48.860;9.188;2022-09-14T03:50:06;8.73;;;2.72;;
31818;SDS011;18384;48.860;9.188;2022-09-14T03:52:34;7.47;;;2.92;;
31818;SDS011;18384;48.860;9.188;2022-09-14T03:55:01;15.35;;;3.05;;
31818;SDS011;18384;48.860;9.188;2022-09-14T03:57:30;8.32;;;2.83;;
31818;SDS011;18384;48.860;9.188;2022-09-14T03:59:57;11.60;;;3.33;;
31818;SDS011;18384;48.860;9.188;2022-09-14T04:02:23;7.53;;;3.03;;
31818;SDS011;18384;48.860;9.188;2022-09-14T04:04:49;10.52;;;2.85;;
31818;SDS011;18384;48.860;9.188;2022-09-14T04:09:42;4.47;;;3.05;;
31818;SDS011;18384;48.860;9.188;2022-09-14T04:12:09;5.75;;;3.42;;
31818;SDS011;18384;48.860;9.188;2022-09-14T04:14:35;7.40;;;2.75;;
31818;SDS011;18384;48.860;9.188;2022-09-14T04:17:01;6.93;;;3.05;;
31818;SDS011;18384;48.860;9.188;2022-09-14T04:19:28;6.53;;;2.87;;
31818;SDS011;18384;48.860;9.188;2022-09-14T04:21:55;9.27;;;3.17;;
31818;SDS011;18384;48.860;9.188;2022-09-14T04:24:21;7.45;;;2.92;;
31818;SDS011;18384;48.860;9.188;2022-09-14T04:26:47;8.32;;;2.87;;
31818;SDS011;18384;48.860;9.188;2022-09-14T04:29:13;9.05;;;3.58;;
31818;SDS011;18384;48.860;9.188;2022-09-14T04:31:39;5.10;;;3.08;;
31818;SDS011;18384;48.860;9.188;2022-09-14T04:34:05;9.20;;;3.00;;
31818;SDS011;18384;48.860;9.188;2022-09-14T04:36:31;8.90;;;3.35;;
31818;SDS011;18384;48.860;9.188;2022-09-14T04:41:25;9.77;;;3.90;;
31818;SDS011;18384;48.860;9.188;2022-09-14T04:43:53;11.00;;;4.30;;
31818;SDS011;18384;48.860;9.188;2022-09-14T04:46:21;7.10;;;3.28;;
31818;SDS011;18384;48.860;9.188;2022-09-14T04:48:52;6.40;;;3.30;;
31818;SDS011;18384;48.860;9.188;2022-09-14T04:53:48;8.25;;;4.10;;
31818;SDS011;18384;48.860;9.188;2022-09-14T04:56:17;12.48;;;3.92;;
31818;SDS011;18384;48.860;9.188;2022-09-14T04:58:47;13.30;;;3.85;;
31818;SDS011;18384;48.860;9.188;2022-09-14T05:01:20;6.32;;;3.70;;
31818;SDS011;18384;48.860;9.188;2022-09-14T05:03:49;8.35;;;3.78;;
31818;SDS011;18384;48.860;9.188;2022-09-14T05:06:17;7.40;;;3.78;;
31818;SDS011;18384;48.860;9.188;2022-09-14T05:08:49;9.50;;;3.78;;
31818;SDS011;18384;48.860;9.188;2022-09-14T05:11:20;12.43;;;4.03;;
31818;SDS011;18384;48.860;9.188;2022-09-14T05:13:49;9.85;;;4.00;;
31818;SDS011;18384;48.860;9.188;2022-09-14T05:16:19;10.80;;;4.75;;
31818;SDS011;18384;48.860;9.188;2022-09-14T05:18:55;8.80;;;4.10;;
31818;SDS011;18384;48.860;9.188;2022-09-14T05:21:25;9.50;;;4.03;;
31818;SDS011;18384;48.860;9.188;2022-09-14T05:23:53;10.23;;;4.47;;
31818;SDS011;18384;48.860;9.188;2022-09-14T05:26:21;9.65;;;4.60;;
31818;SDS011;18384;48.860;9.188;2022-09-14T05:28:49;7.45;;;4.15;;
31818;SDS011;18384;48.860;9.188;2022-09-14T05:31:17;8.80;;;4.60;;
31818;SDS011;18384;48.860;9.188;2022-09-14T05:33:45;10.95;;;4.70;;
31818;SDS011;18384;48.860;9.188;2022-09-14T05:36:12;9.98;;;4.53;;
31818;SDS011;18384;48.860;9.188;2022-09-14T05:38:38;9.95;;;4.35;;
31818;SDS011;18384;48.860;9.188;2022-09-14T05:41:05;9.77;;;4.85;;
31818;SDS011;18384;48.860;9.188;2022-09-14T05:43:37;7.62;;;3.92;;
31818;SDS011;18384;48.860;9.188;2022-09-14T05:46:05;6.57;;;4.40;;
31818;SDS011;18384;48.860;9.188;2022-09-14T05:48:37;9.77;;;4.78;;
31818;SDS011;18384;48.860;9.188;2022-09-14T05:51:05;13.27;;;4.55;;
31818;SDS011;18384;48.860;9.188;2022-09-14T05:53:38;8.07;;;4.05;;
31818;SDS011;18384;48.860;9.188;2022-09-14T05:56:06;9.55;;;4.72;;
31818;SDS011;18384;48.860;9.188;2022-09-14T05:58:35;7.68;;;4.47;;
31818;SDS011;18384;48.860;9.188;2022-09-14T06:01:07;8.90;;;4.62;;
31818;SDS011;18384;48.860;9.188;2022-09-14T06:03:36;8.75;;;5.53;;
31818;SDS011;18384;48.860;9.188;2022-09-14T06:06:03;6.40;;;4.50;;
31818;SDS011;18384;48.860;9.188;2022-09-14T06:08:32;14.15;;;4.85;;
31818;SDS011;18384;48.860;9.188;2022-09-14T06:11:03;8.05;;;5.70;;
31818;SDS011;18384;48.860;9.188;2022-09-14T06:13:35;9.82;;;5.50;;
31818;SDS011;18384;48.860;9.188;2022-09-14T06:16:05;8.27;;;5.00;;
31818;SDS011;18384;48.860;9.188;2022-09-14T06:18:35;9.63;;;5.10;;
31818;SDS011;18384;48.860;9.188;2022-09-14T06:21:02;12.75;;;5.12;;
31818;SDS011;18384;48.860;9.188;2022-09-14T06:23:30;13.55;;;5.10;;
31818;SDS011;18384;48.860;9.188;2022-09-14T06:25:58;16.58;;;5.75;;
31818;SDS011;18384;48.860;9.188;2022-09-14T06:28:26;11.80;;;5.55;;
31818;SDS011;18384;48.860;9.188;2022-09-14T06:30:53;10.57;;;5.40;;
31818;SDS011;18384;48.860;9.188;2022-09-14T06:33:20;11.70;;;5.03;;
31818;SDS011;18384;48.860;9.188;2022-09-14T06:35:53;10.52;;;5.15;;
31818;SDS011;18384;48.860;9.188;2022-09-14T06:38:26;9.23;;;5.18;;
31818;SDS011;18384;48.860;9.188;2022-09-14T06:40:54;12.25;;;5.62;;
31818;SDS011;18384;48.860;9.188;2022-09-14T06:43:32;7.53;;;5.35;;
31818;SDS011;18384;48.860;9.188;2022-09-14T06:46:02;14.38;;;5.47;;
31818;SDS011;18384;48.860;9.188;2022-09-14T06:48:44;12.15;;;5.45;;
31818;SDS011;18384;48.860;9.188;2022-09-14T06:51:36;13.15;;;5.97;;
31818;SDS011;18384;48.860;9.188;2022-09-14T06:54:08;10.35;;;5.65;;
31818;SDS011;18384;48.860;9.188;2022-09-14T06:56:37;16.45;;;5.90;;
31818;SDS011;18384;48.860;9.188;2022-09-14T06:59:06;9.38;;;5.20;;
31818;SDS011;18384;48.860;9.188;2022-09-14T07:01:35;11.65;;;4.97;;
31818;SDS011;18384;48.860;9.188;2022-09-14T07:04:02;14.73;;;5.32;;
31818;SDS011;18384;48.860;9.188;2022-09-14T07:06:30;9.65;;;4.90;;
31818;SDS011;18384;48.860;9.188;2022-09-14T07:09:03;7.78;;;4.07;;
31818;SDS011;18384;48.860;9.188;2022-09-14T07:13:55;6.50;;;3.17;;
31818;SDS011;18384;48.860;9.188;2022-09-14T07:16:23;11.65;;;3.65;;
31818;SDS011;18384;48.860;9.188;2022-09-14T07:18:54;7.72;;;3.62;;
31818;SDS011;18384;48.860;9.188;2022-09-14T07:21:22;6.72;;;3.58;;
31818;SDS011;18384;48.860;9.188;2022-09-14T07:23:49;7.50;;;4.00;;
31818;SDS011;18384;48.860;9.188;2022-09-14T07:28:48;8.00;;;2.80;;
31818;SDS011;18384;48.860;9.188;2022-09-14T07:31:19;10.20;;;2.67;;
31818;SDS011;18384;48.860;9.188;2022-09-14T07:33:53;7.82;;;2.90;;
31818;SDS011;18384;48.860;9.188;2022-09-14T07:36:22;5.43;;;2.40;;
31818;SDS011;18384;48.860;9.188;2022-09-14T07:38:50;5.25;;;2.20;;
31818;SDS011;18384;48.860;9.188;2022-09-14T07:41:16;4.28;;;2.45;;
31818;SDS011;18384;48.860;9.188;2022-09-14T07:43:46;8.52;;;3.05;;
31818;SDS011;18384;48.860;9.188;2022-09-14T07:46:16;10.10;;;2.20;;
31818;SDS011;18384;48.860;9.188;2022-09-14T07:48:44;5.15;;;2.15;;
31818;SDS011;18384;48.860;9.188;2022-09-14T07:51:11;6.32;;;2.25;;
31818;SDS011;18384;48.860;9.188;2022-09-14T07:53:39;4.47;;;2.08;;
31818;SDS011;18384;48.860;9.188;2022-09-14T07:56:08;8.35;;;3.05;;
31818;SDS011;18384;48.860;9.188;2022-09-14T07:58:36;4.87;;;2.03;;
31818;SDS011;18384;48.860;9.188;2022-09-14T08:01:03;5.53;;;2.25;;
31818;SDS011;18384;48.860;9.188;2022-09-14T08:03:33;4.22;;;2.03;;
31818;SDS011;18384;48.860;9.188;2022-09-14T08:06:04;7.18;;;2.12;;
31818;SDS011;18384;48.860;9.188;2022-09-14T08:08:38;8.20;;;2.22;;
31818;SDS011;18384;48.860;9.188;2022-09-14T08:11:40;7.45;;;2.17;;
31818;SDS011;18384;48.860;9.188;2022-09-14T08:14:07;8.82;;;2.00;;
31818;SDS011;18384;48.860;9.188;2022-09-14T08:16:36;7.03;;;2.22;;
31818;SDS011;18384;48.860;9.188;2022-09-14T08:19:06;2.60;;;1.70;;
31818;SDS011;18384;48.860;9.188;2022-09-14T08:21:55;4.32;;;1.95;;
31818;SDS011;18384;48.860;9.188;2022-09-14T08:24:21;8.02;;;1.83;;
31818;SDS011;18384;48.860;9.188;2022-09-14T08:29:14;5.18;;;2.00;;
31818;SDS011;18384;48.860;9.188;2022-09-14T08:31:42;7.22;;;1.80;;
31818;SDS011;18384;48.860;9.188;2022-09-14T08:34:10;2.97;;;1.70;;
31818;SDS011;18384;48.860;9.188;2022-09-14T08:36:37;6.10;;;1.95;;
31818;SDS011;18384;48.860;9.188;2022-09-14T08:39:06;6.03;;;2.05;;
31818;SDS011;18384;48.860;9.188;2022-09-14T08:41:37;7.30;;;2.37;;
31818;SDS011;18384;48.860;9.188;2022-09-14T08:45:11;3.72;;;1.70;;
31818;SDS011;18384;48.860;9.188;2022-09-14T08:47:40;7.90;;;2.00;;
31818;SDS011;18384;48.860;9.188;2022-09-14T08:50:11;6.15;;;1.62;;
31818;SDS011;18384;48.860;9.188;2022-09-14T08:52:47;4.80;;;2.45;;
31818;SDS011;18384;48.860;9.188;2022-09-14T08:55:19;3.45;;;1.65;;
31818;SDS011;18384;48.860;9.188;2022-09-14T08:58:15;5.40;;;1.80;;
31818;SDS011;18384;48.860;9.188;2022-09-14T09:02:23;4.30;;;1.98;;
31818;SDS011;18384;48.860;9.188;2022-09-14T09:08:01;9.93;;;2.35;;
31818;SDS011;18384;48.860;9.188;2022-09-14T09:10:41;10.30;;;2.17;;
31818;SDS011;18384;48.860;9.188;2022-09-14T09:13:10;7.22;;;1.90;;
31818;SDS011;18384;48.860;9.188;2022-09-14T09:15:44;8.20;;;1.95;;
31818;SDS011;18384;48.860;9.188;2022-09-14T09:18:38;6.22;;;2.03;;
31818;SDS011;18384;48.860;9.188;2022-09-14T09:21:16;5.30;;;2.33;;
31818;SDS011;18384;48.860;9.188;2022-09-14T09:24:36;5.15;;;1.80;;
31818;SDS011;18384;48.860;9.188;2022-09-14T09:27:10;3.58;;;1.65;;
31818;SDS011;18384;48.860;9.188;2022-09-14T09:29:39;5.12;;;1.67;;
31818;SDS011;18384;48.860;9.188;2022-09-14T09:32:11;6.12;;;1.90;;
31818;SDS011;18384;48.860;9.188;2022-09-14T09:34:41;3.17;;;1.62;;
31818;SDS011;18384;48.860;9.188;2022-09-14T09:39:42;5.68;;;1.90;;
31818;SDS011;18384;48.860;9.188;2022-09-14T09:42:13;4.57;;;1.50;;
31818;SDS011;18384;48.860;9.188;2022-09-14T09:44:57;9.23;;;1.70;;
31818;SDS011;18384;48.860;9.188;2022-09-14T09:47:30;4.43;;;1.58;;
31818;SDS011;18384;48.860;9.188;2022-09-14T09:50:04;3.28;;;1.20;;
31818;SDS011;18384;48.860;9.188;2022-09-14T09:52:52;6.10;;;1.75;;
31818;SDS011;18384;48.860;9.188;2022-09-14T09:55:22;6.30;;;1.60;;
31818;SDS011;18384;48.860;9.188;2022-09-14T09:57:53;5.53;;;1.37;;
31818;SDS011;18384;48.860;9.188;2022-09-14T10:00:21;7.55;;;1.77;;
31818;SDS011;18384;48.860;9.188;2022-09-14T10:02:50;6.15;;;1.50;;
31818;SDS011;18384;48.860;9.188;2022-09-14T10:05:20;7.25;;;1.70;;
31818;SDS011;18384;48.860;9.188;2022-09-14T10:08:02;4.45;;;1.55;;
31818;SDS011;18384;48.860;9.188;2022-09-14T10:13:17;3.50;;;1.23;;
31818;SDS011;18384;48.860;9.188;2022-09-14T10:16:16;5.30;;;1.55;;
31818;SDS011;18384;48.860;9.188;2022-09-14T10:18:45;3.92;;;1.33;;
31818;SDS011;18384;48.860;9.188;2022-09-14T10:21:14;8.48;;;1.40;;
31818;SDS011;18384;48.860;9.188;2022-09-14T10:23:45;5.15;;;1.50;;
31818;SDS011;18384;48.860;9.188;2022-09-14T10:26:32;7.05;;;1.77;;
31818;SDS011;18384;48.860;9.188;2022-09-14T10:39:19;3.97;;;1.45;;
31818;SDS011;18384;48.860;9.188;2022-09-14T10:46:19;5.57;;;1.65;;
31818;SDS011;18384;48.860;9.188;2022-09-14T10:49:03;4.45;;;1.10;;
31818;SDS011;18384;48.860;9.188;2022-09-14T10:52:34;6.62;;;1.60;;
31818;SDS011;18384;48.860;9.188;2022-09-14T10:55:28;4.80;;;1.08;;
31818;SDS011;18384;48.860;9.188;2022-09-14T11:01:48;5.72;;;1.40;;
31818;SDS011;18384;48.860;9.188;2022-09-14T11:05:02;7.60;;;1.42;;
31818;SDS011;18384;48.860;9.188;2022-09-14T11:08:07;3.95;;;1.30;;
31818;SDS011;18384;48.860;9.188;2022-09-14T11:14:28;6.12;;;1.15;;
31818;SDS011;18384;48.860;9.188;2022-09-14T11:19:07;6.15;;;1.30;;
31818;SDS011;18384;48.860;9.188;2022-09-14T11:22:09;9.20;;;2.10;;
31818;SDS011;18384;48.860;9.188;2022-09-14T11:25:00;4.90;;;1.40;;
31818;SDS011;18384;48.860;9.188;2022-09-14T11:29:14;9.77;;;1.58;;
31818;SDS011;18384;48.860;9.188;2022-09-14T11:32:00;5.85;;;1.90;;
31818;SDS011;18384;48.860;9.188;2022-09-14T11:34:55;5.18;;;1.20;;
31818;SDS011;18384;48.860;9.188;2022-09-14T11:37:44;4.00;;;1.17;;
31818;SDS011;18384;48.860;9.188;2022-09-14T11:40:21;7.45;;;1.62;;
31818;SDS011;18384;48.860;9.188;2022-09-14T11:42:57;6.72;;;1.62;;
31818;SDS011;18384;48.860;9.188;2022-09-14T11:55:15;5.32;;;1.30;;
31818;SDS011;18384;48.860;9.188;2022-09-14T11:57:44;3.72;;;1.45;;
31818;SDS011;18384;48.860;9.188;2022-09-14T12:04:13;7.37;;;1.60;;
31818;SDS011;18384;48.860;9.188;2022-09-14T12:06:42;6.05;;;1.30;;
31818;SDS011;18384;48.860;9.188;2022-09-14T12:09:30;7.95;;;1.40;;
31818;SDS011;18384;48.860;9.188;2022-09-14T12:12:03;9.32;;;1.30;;
31818;SDS011;18384;48.860;9.188;2022-09-14T12:14:57;8.40;;;1.25;;
31818;SDS011;18384;48.860;9.188;2022-09-14T12:17:25;5.25;;;1.20;;
31818;SDS011;18384;48.860;9.188;2022-09-14T12:19:58;13.70;;;1.27;;
31818;SDS011;18384;48.860;9.188;2022-09-14T12:26:26;4.20;;;1.40;;
31818;SDS011;18384;48.860;9.188;2022-09-14T12:29:00;8.73;;;1.35;;
31818;SDS011;18384;48.860;9.188;2022-09-14T12:32:00;5.35;;;1.05;;
31818;SDS011;18384;48.860;9.188;2022-09-14T12:34:30;8.98;;;1.40;;
31818;SDS011;18384;48.860;9.188;2022-09-14T12:36:59;4.78;;;1.45;;
31818;SDS011;18384;48.860;9.188;2022-09-14T12:39:34;5.25;;;1.37;;
31818;SDS011;18384;48.860;9.188;2022-09-14T12:42:09;6.43;;;1.48;;
31818;SDS011;18384;48.860;9.188;2022-09-14T12:44:52;5.60;;;1.50;;
31818;SDS011;18384;48.860;9.188;2022-09-14T12:50:18;5.85;;;1.65;;
31818;SDS011;18384;48.860;9.188;2022-09-14T12:52:56;5.72;;;1.55;;
31818;SDS011;18384;48.860;9.188;2022-09-14T12:55:59;7.62;;;1.73;;
31818;SDS011;18384;48.860;9.188;2022-09-14T12:58:35;7.62;;;1.60;;
31818;SDS011;18384;48.860;9.188;2022-09-14T13:07:04;6.20;;;1.73;;
31818;SDS011;18384;48.860;9.188;2022-09-14T13:09:53;7.20;;;1.70;;
31818;SDS011;18384;48.860;9.188;2022-09-14T13:12:23;3.05;;;1.52;;
31818;SDS011;18384;48.860;9.188;2022-09-14T13:15:58;8.52;;;1.73;;
31818;SDS011;18384;48.860;9.188;2022-09-14T13:18:29;3.72;;;1.42;;
31818;SDS011;18384;48.860;9.188;2022-09-14T13:21:00;6.90;;;1.40;;
31818;SDS011;18384;48.860;9.188;2022-09-14T13:23:40;6.87;;;1.50;;
31818;SDS011;18384;48.860;9.188;2022-09-14T13:26:08;3.08;;;1.33;;
31818;SDS011;18384;48.860;9.188;2022-09-14T13:28:43;9.07;;;1.80;;
31818;SDS011;18384;48.860;9.188;2022-09-14T13:31:12;6.65;;;1.52;;
31818;SDS011;18384;48.860;9.188;2022-09-14T13:33:53;4.78;;;1.25;;
31818;SDS011;18384;48.860;9.188;2022-09-14T13:36:23;4.95;;;1.17;;
31818;SDS011;18384;48.860;9.188;2022-09-14T13:38:52;3.58;;;1.20;;
31818;SDS011;18384;48.860;9.188;2022-09-14T13:41:20;4.20;;;1.10;;
31818;SDS011;18384;48.860;9.188;2022-09-14T13:43:48;5.90;;;1.40;;
31818;SDS011;18384;48.860;9.188;2022-09-14T13:46:18;3.65;;;1.20;;
31818;SDS011;18384;48.860;9.188;2022-09-14T13:48:46;7.47;;;1.85;;
31818;SDS011;18384;48.860;9.188;2022-09-14T13:51:13;6.87;;;1.25;;
31818;SDS011;18384;48.860;9.188;2022-09-14T13:53:42;1.90;;;0.75;;
31818;SDS011;18384;48.860;9.188;2022-09-14T13:56:18;9.23;;;1.10;;
31818;SDS011;18384;48.860;9.188;2022-09-14T14:03:30;5.03;;;1.00;;
31818;SDS011;18384;48.860;9.188;2022-09-14T14:06:02;4.97;;;1.12;;
31818;SDS011;18384;48.860;9.188;2022-09-14T14:09:00;6.00;;;1.23;;
31818;SDS011;18384;48.860;9.188;2022-09-14T14:11:31;2.17;;;0.90;;
31818;SDS011;18384;48.860;9.188;2022-09-14T14:14:19;3.72;;;0.73;;
31818;SDS011;18384;48.860;9.188;2022-09-14T14:21:28;7.05;;;0.62;;
31818;SDS011;18384;48.860;9.188;2022-09-14T14:26:53;3.60;;;0.80;;
31818;SDS011;18384;48.860;9.188;2022-09-14T14:29:22;1.30;;;0.55;;
31818;SDS011;18384;48.860;9.188;2022-09-14T14:31:48;3.40;;;0.88;;
31818;SDS011;18384;48.860;9.188;2022-09-14T14:36:52;3.00;;;1.08;;
31818;SDS011;18384;48.860;9.188;2022-09-14T14:39:21;4.20;;;0.95;;
31818;SDS011;18384;48.860;9.188;2022-09-14T14:41:49;2.45;;;0.88;;
31818;SDS011;18384;48.860;9.188;2022-09-14T14:44:23;2.62;;;0.90;;
31818;SDS011;18384;48.860;9.188;2022-09-14T14:46:54;2.50;;;0.70;;
31818;SDS011;18384;48.860;9.188;2022-09-14T14:49:21;4.30;;;0.77;;
31818;SDS011;18384;48.860;9.188;2022-09-14T14:51:48;8.20;;;1.37;;
31818;SDS011;18384;48.860;9.188;2022-09-14T14:54:15;3.70;;;0.80;;
31818;SDS011;18384;48.860;9.188;2022-09-14T14:56:43;7.45;;;1.42;;
31818;SDS011;18384;48.860;9.188;2022-09-14T14:59:24;4.70;;;0.90;;
31818;SDS011;18384;48.860;9.188;2022-09-14T15:01:54;2.70;;;1.00;;
31818;SDS011;18384;48.860;9.188;2022-09-14T15:04:21;2.62;;;0.82;;
31818;SDS011;18384;48.860;9.188;2022-09-14T15:06:48;1.92;;;0.98;;
31818;SDS011;18384;48.860;9.188;2022-09-14T15:09:18;3.03;;;0.80;;
31818;SDS011;18384;48.860;9.188;2022-09-14T15:11:50;4.10;;;0.93;;
31818;SDS011;18384;48.860;9.188;2022-09-14T15:14:18;4.93;;;0.88;;
31818;SDS011;18384;48.860;9.188;2022-09-14T15:16:47;2.97;;;0.90;;
31818;SDS011;18384;48.860;9.188;2022-09-14T15:19:14;4.62;;;0.80;;
31818;SDS011;18384;48.860;9.188;2022-09-14T15:21:41;4.43;;;0.80;;
31818;SDS011;18384;48.860;9.188;2022-09-14T15:24:08;7.85;;;1.17;;
31818;SDS011;18384;48.860;9.188;2022-09-14T15:26:35;6.68;;;1.00;;
31818;SDS011;18384;48.860;9.188;2022-09-14T15:29:02;3.50;;;0.80;;
31818;SDS011;18384;48.860;9.188;2022-09-14T15:31:29;5.87;;;1.15;;
31818;SDS011;18384;48.860;9.188;2022-09-14T15:33:55;2.20;;;0.88;;
31818;SDS011;18384;48.860;9.188;2022-09-14T15:36:33;7.90;;;1.02;;
31818;SDS011;18384;48.860;9.188;2022-09-14T15:39:12;2.62;;;0.80;;
31818;SDS011;18384;48.860;9.188;2022-09-14T15:41:39;2.35;;;0.70;;
31818;SDS011;18384;48.860;9.188;2022-09-14T15:44:06;2.50;;;0.85;;
31818;SDS011;18384;48.860;9.188;2022-09-14T15:46:33;2.30;;;0.77;;
31818;SDS011;18384;48.860;9.188;2022-09-14T15:49:04;1.60;;;0.80;;
31818;SDS011;18384;48.860;9.188;2022-09-14T15:51:33;2.87;;;1.02;;
31818;SDS011;18384;48.860;9.188;2022-09-14T15:53:59;3.12;;;0.90;;
31818;SDS011;18384;48.860;9.188;2022-09-14T15:56:26;3.87;;;0.90;;
31818;SDS011;18384;48.860;9.188;2022-09-14T16:01:19;4.97;;;0.85;;
31818;SDS011;18384;48.860;9.188;2022-09-14T16:06:12;3.87;;;0.70;;
31818;SDS011;18384;48.860;9.188;2022-09-14T16:08:39;1.80;;;0.60;;
31818;SDS011;18384;48.860;9.188;2022-09-14T16:11:06;2.95;;;0.73;;
31818;SDS011;18384;48.860;9.188;2022-09-14T16:13:33;2.67;;;0.70;;
31818;SDS011;18384;48.860;9.188;2022-09-14T16:16:08;2.00;;;0.60;;
31818;SDS011;18384;48.860;9.188;2022-09-14T16:18:37;4.70;;;0.60;;
31818;SDS011;18384;48.860;9.188;2022-09-14T16:21:04;3.00;;;0.93;;
31818;SDS011;18384;48.860;9.188;2022-09-14T16:23:38;5.55;;;1.08;;
31818;SDS011;18384;48.860;9.188;2022-09-14T16:26:08;9.20;;;0.85;;
31818;SDS011;18384;48.860;9.188;2022-09-14T16:28:40;2.55;;;0.88;;
31818;SDS011;18384;48.860;9.188;2022-09-14T16:31:09;1.58;;;0.65;;
31818;SDS011;18384;48.860;9.188;2022-09-14T16:33:41;4.40;;;0.60;;
31818;SDS011;18384;48.860;9.188;2022-09-14T16:36:10;2.87;;;0.82;;
31818;SDS011;18384;48.860;9.188;2022-09-14T16:38:42;1.87;;;0.75;;
31818;SDS011;18384;48.860;9.188;2022-09-14T16:43:36;3.15;;;1.27;;
31818;SDS011;18384;48.860;9.188;2022-09-14T16:46:08;6.47;;;0.80;;
31818;SDS011;18384;48.860;9.188;2022-09-14T16:48:41;2.72;;;0.75;;
31818;SDS011;18384;48.860;9.188;2022-09-14T16:51:10;1.92;;;0.85;;
31818;SDS011;18384;48.860;9.188;2022-09-14T16:53:38;5.90;;;0.90;;
31818;SDS011;18384;48.860;9.188;2022-09-14T16:56:10;1.92;;;0.65;;
31818;SDS011;18384;48.860;9.188;2022-09-14T16:58:49;3.30;;;1.00;;
31818;SDS011;18384;48.860;9.188;2022-09-14T17:01:18;3.35;;;1.35;;
31818;SDS011;18384;48.860;9.188;2022-09-14T17:03:57;2.40;;;1.08;;
31818;SDS011;18384;48.860;9.188;2022-09-14T17:06:29;6.30;;;0.95;;
31818;SDS011;18384;48.860;9.188;2022-09-14T17:08:57;3.12;;;0.93;;
31818;SDS011;18384;48.860;9.188;2022-09-14T17:11:28;3.50;;;1.10;;
31818;SDS011;18384;48.860;9.188;2022-09-14T17:13:57;1.70;;;1.05;;
31818;SDS011;18384;48.860;9.188;2022-09-14T17:18:51;1.58;;;0.80;;
31818;SDS011;18384;48.860;9.188;2022-09-14T17:21:22;3.72;;;1.25;;
31818;SDS011;18384;48.860;9.188;2022-09-14T17:23:51;6.05;;;1.27;;
31818;SDS011;18384;48.860;9.188;2022-09-14T17:26:19;2.92;;;0.93;;
31818;SDS011;18384;48.860;9.188;2022-09-14T17:28:46;7.95;;;1.45;;
31818;SDS011;18384;48.860;9.188;2022-09-14T17:31:16;3.67;;;1.10;;
31818;SDS011;18384;48.860;9.188;2022-09-14T17:33:46;2.92;;;1.10;;
31818;SDS011;18384;48.860;9.188;2022-09-14T17:36:13;4.47;;;1.20;;
31818;SDS011;18384;48.860;9.188;2022-09-14T17:38:41;5.40;;;1.10;;
31818;SDS011;18384;48.860;9.188;2022-09-14T17:41:12;5.30;;;1.25;;
31818;SDS011;18384;48.860;9.188;2022-09-14T17:43:41;3.45;;;1.30;;
31818;SDS011;18384;48.860;9.188;2022-09-14T17:46:11;6.35;;;1.12;;
31818;SDS011;18384;48.860;9.188;2022-09-14T17:48:39;6.32;;;1.30;;
31818;SDS011;18384;48.860;9.188;2022-09-14T17:51:07;3.12;;;1.27;;
31818;SDS011;18384;48.860;9.188;2022-09-14T17:53:38;8.00;;;3.25;;